This is the latest recevied weather packets stored in our database for station/object K4MUW-4. If no packets are shown the sender has not sent any weather packets the latest 10 day(s).
| Time | Temp. | Humidity | Pressure | Rain* | Wind** | Luminosity | Snow |
|---|---|---|---|---|---|---|---|
| 1777569999 | 19.44° C | 47% | 1010 hPa | 0 mm | 1.34 m/s, 351° | - | - |
| 1777569699 | 19.44° C | 46% | 1010 hPa | 0 mm | 1.79 m/s, 308° | - | - |
| 1777568784 | 18.89° C | 49% | 1011 hPa | 0 mm | 1.34 m/s, 19° | - | - |
| 1777568183 | 18.89° C | 48% | 1011 hPa | 0 mm | 1.79 m/s, 322° | - | - |
| 1777567582 | 18.33° C | 53% | 1011 hPa | 0 mm | 0 m/s | - | - |
| 1777567282 | 18.33° C | 54% | 1011 hPa | 0 mm | 0 m/s | - | - |
| 1777566381 | 17.78° C | 49% | 1011 hPa | 0 mm | 1.79 m/s, 0° | - | - |
| 1777563974 | 17.22° C | 64% | 1011 hPa | 0 mm | 0 m/s | - | - |
| 1777563675 | 17.22° C | 63% | 1011 hPa | 0 mm | 1.79 m/s, 9° | - | - |
| 1777562168 | 16.67° C | 67% | 1011 hPa | 0 mm | 0 m/s | - | - |
| 1777561866 | 16.67° C | 63% | 1011 hPa | 0 mm | 1.79 m/s, 292° | - | - |
| 1777561566 | 16.11° C | 69% | 1011 hPa | 0 mm | 0 m/s | - | - |
| 1777560360 | 16.11° C | 68% | 1010 hPa | 0 mm | 2.24 m/s, 280° | - | - |
| 1777560061 | 15.56° C | 70% | 1010 hPa | 0 mm | 0 m/s | - | - |
| 1777557319 | 15° C | 81% | 1010 hPa | 0 mm | 0 m/s | - | - |
| 1777556718 | 15° C | 82% | 1010 hPa | 0 mm | 0 m/s | - | - |
| 1777556118 | 15° C | 81% | 1010 hPa | 0 mm | 1.34 m/s, 255° | - | - |
| 1777554916 | 14.44° C | 81% | 1010 hPa | 0 mm | 1.79 m/s, 339° | - | - |
| 1777554616 | 14.44° C | 81% | 1010 hPa | 0 mm | 1.79 m/s, 356° | - | - |
| 1777552513 | 14.44° C | 87% | 1010 hPa | 1.02 mm | 1.79 m/s, 345° | - | - |
| 1777551313 | 15° C | 91% | 1010 hPa | 1.02 mm | 0 m/s | - | - |
| 1777548309 | 15° C | 91% | 1009 hPa | 0 mm | 0 m/s | - | - |
| 1777543687 | 15° C | 89% | 1008 hPa | 0 mm | 0 m/s | - | - |
| 1777543085 | 15° C | 89% | 1008 hPa | 0 mm | 0 m/s | - | - |
| 1777542184 | 15° C | 90% | 1009 hPa | 0 mm | 0 m/s | - | - |
* Rain latest hour (hover to see other rain measurements)
** Current wind speed in m/s (hover to see current wind gust speed)